Airfield :
LOGIN :

Register | Disclaimer

   EN    FR    IT 

 










Legend :    VFR   Marginal VFR   IFR   Intensive IFR   Very Intensive IFR
Visi :
Ceiling :
>= 8 km
>= 3000ft
5 to 8 km
1000 to 3000 ft
1500m to 5 km
500 to 1000 ft
800 to 1500m
200 to 500 ft
< 800m
< 200 ft
Symbols :   Thunderstorms  Fog  Heavy snow  Heavy precipitations  Wind > 20 kt
SIGMETs :     Misc.  Thunderstorms  Icing  Turbulence  Mountain Waves  Volcanic Ashes







- Airport Elevation : 1568 ft


ETSB - Büchel AB

CURRENT METAR :
  • 210320Z AUTO 25006KT 9000 // ////// 16/13 Q1018 ///

EXPIRED METARs :
  • 210220Z AUTO 27004KT 9999 // ////// 16/13 Q1018 ///
  • 210120Z AUTO 29002KT 8000 // ////// 16/14 Q1018 ///

Expired Forecast.
No reported NOTAMs for that airfield.
1 SIGMET reported for the Langen FIR (EDGG) :
 
Embedded thunderstorms
EDGG SIGMET T02 VALID 210300/210500 EDZF
EDGG LANGEN FIR EMBD TS OBS WI N4947 E01054 - N4924 E01059 - N4838 E00939 - N4748 E00933 - N4747 E00853 - N4756 E00853 - N4740 E00759 - N4837 E00820 - N4947 E01054 TOP FL380 NC FCST AT 0500Z WI N4952 E01211 - N4847 E01333 - N4731 E01020 - N4747 E00913 - N4952 E01211=



MET'MAP, your aeronautical weather chart ! - Copyright ORBIFLY December 2007 - Disclaimer

ORBIFLY MET'MAP TEAM :

Programming & Development : Alexandra Zaïnal
Concept & Development : Baudouin d'Aumeries
Co-Development & Prog : Marc-Olivier Méhu
Technical & hardware support : Manuel Goepfert

Contact : metmap@orbifly.com




SOURCES & CREDITS :

   NOAA